Coronel Bogado, Argentina
Current Conditions -  °F | °C
As of 10:00 AM on Saturday 20 Dec 2014 (Local Time) from SAAR Reporting Station
Overcast Overcast  
Wind Chill: 64°   Ceiling: 1000
Heat Index: 64°   Visibility: 6mi
Dew Point: 64°   Wind: 5mph
Humidity: 100%   Direction: 140°SE
Pressure: 29.59"   Gusts: NA
Location:  33.4°S, 60.55°W
Report Text: SAAR 201300Z 14004KT 9999 BKN010 OVC01218/18 Q1002 RETSRA
Loading
Personal Weather Stations






























Interactive Weather Map New forecast layout! Learn more

10-Day Weather Forecast

Advertisements
Track Severe Weather on mobile